Date,TemperatureHighF,TemperatureAvgF,TemperatureLowF,DewpointHighF,DewpointAvgF,DewpointLowF,HumidityHigh,HumidityAvg,HumidityLow,PressureMaxIn,PressureMinIn,WindSpeedMaxMPH,WindSpeedAvgMPH,GustSpeedMaxMPH,PrecipitationSumIn
2013-1-1,69.0,65.5,63.0,69.0,65.2,63.0,100,99,97,0.00,40.00,10,5,25,0.31
2013-1-2,70.0,66.1,63.0,68.0,65.7,63.0,100,99,91,0.00,40.00,9,5,22,0.44
2013-1-3,70.0,65.7,64.0,69.0,65.4,63.0,100,99,96,0.00,40.00,10,6,26,1.06
2013-1-4,68.0,65.7,64.0,66.0,64.3,62.0,100,95,88,0.00,40.00,10,7,33,2.16
2013-1-5,69.0,66.5,65.0,68.0,65.0,63.0,99,95,89,0.00,40.00,21,12,52,2.95
2013-1-6,71.0,67.4,66.0,66.0,64.0,61.0,95,89,79,0.00,40.00,22,10,49,0.31
2013-1-7,72.0,67.8,65.0,68.0,64.9,61.0,99,90,73,0.00,40.00,15,8,39,0.50
2013-1-8,72.0,67.0,65.0,67.0,64.8,62.0,100,93,81,0.00,40.00,13,5,30,0.25
2013-1-9,75.0,68.2,64.0,67.0,65.5,64.0,100,92,73,0.00,40.00,12,6,31,0.19
2013-1-10,77.0,69.5,65.0,65.0,62.8,60.0,94,80,65,0.00,40.00,9,6,28,0.04
2013-1-11,76.0,68.8,63.0,66.0,63.4,61.0,100,84,62,0.00,40.00,9,5,20,0.11
2013-1-12,77.0,68.9,64.0,71.0,66.3,64.0,100,92,67,0.00,40.00,8,3,18,0.01
2013-1-13,79.0,70.3,64.0,69.0,66.1,63.0,100,88,62,0.00,40.00,8,4,17,0.01
2013-1-14,70.0,67.1,61.0,70.0,66.8,61.0,100,99,89,0.00,40.00,10,6,27,1.05
2013-1-15,78.0,65.3,56.0,65.0,60.8,56.0,100,87,60,0.00,40.00,8,4,15,0.05
2013-1-16,76.0,64.1,54.0,66.0,58.1,52.0,100,83,54,0.00,40.00,8,5,17,0.00
2013-1-17,74.0,63.9,56.0,62.0,58.3,55.0,100,84,56,0.00,40.00,8,5,18,0.00
2013-1-18,76.0,64.2,56.0,65.0,59.3,55.0,100,86,55,0.00,40.00,9,5,20,0.00
2013-1-19,73.0,64.3,55.0,59.0,54.6,52.0,99,72,51,0.00,40.00,10,6,27,0.00
2013-1-20,72.0,64.0,57.0,57.0,55.3,53.0,100,75,54,0.00,40.00,11,6,25,0.00
2013-1-21,72.0,66.9,61.0,62.0,59.0,55.0,86,76,62,0.00,40.00,9,7,28,0.00
2013-1-22,76.0,68.5,65.0,63.0,60.5,57.0,84,76,59,0.00,40.00,8,4,23,0.00
2013-1-23,76.0,66.2,63.0,68.0,62.8,57.0,100,89,76,0.00,40.00,10,4,22,0.05
2013-1-24,72.0,65.7,60.0,69.0,64.6,60.0,100,96,84,0.00,40.00,9,4,19,0.34
2013-1-25,83.0,67.0,59.0,69.0,63.6,59.0,100,90,52,0.00,40.00,5,3,12,0.02
2013-1-26,79.0,66.1,59.0,67.0,63.3,59.0,100,92,60,0.00,40.00,9,5,24,0.01
2013-1-27,72.0,66.9,61.0,69.0,66.0,61.0,100,97,86,0.00,40.00,11,7,31,6.32
2013-1-28,70.0,64.9,60.0,69.0,64.3,60.0,100,98,85,0.00,40.00,7,3,14,4.60
2013-1-29,79.0,66.3,59.0,69.0,63.4,59.0,100,92,66,0.00,40.00,7,4,15,0.17
2013-1-30,78.0,65.7,58.0,68.0,63.3,58.0,100,93,63,0.00,40.00,5,4,14,0.58
2013-1-31,76.0,68.9,63.0,67.0,64.1,62.0,100,86,69,0.00,40.00,10,6,24,0.02
2013-2-1,77.0,68.5,62.0,63.0,59.0,52.0,91,73,50,0.00,40.00,13,6,35,0.01
2013-2-2,75.0,68.3,63.0,62.0,60.1,58.0,85,75,62,0.00,40.00,13,9,29,0.00
2013-2-3,74.0,66.2,60.0,60.0,57.8,56.0,96,76,57,0.00,40.00,12,6,24,0.00
2013-2-4,69.0,66.6,64.0,64.0,59.5,54.0,93,78,69,0.00,40.00,12,7,28,0.08
2013-2-5,72.0,66.0,62.0,63.0,59.4,57.0,100,80,61,0.00,40.00,11,5,30,0.17
2013-2-6,74.0,65.9,61.0,67.0,63.6,60.0,100,93,73,0.00,40.00,9,6,27,0.25
2013-2-7,75.0,67.2,62.0,68.0,64.7,62.0,100,92,76,0.00,40.00,10,4,23,0.07
2013-2-8,78.0,68.6,60.0,65.0,62.6,60.0,100,83,57,0.00,40.00,7,4,17,0.01
2013-2-9,76.0,66.9,59.0,65.0,60.7,59.0,100,82,59,0.00,40.00,10,6,24,0.01
2013-2-10,70.0,66.7,65.0,67.0,63.0,59.0,100,88,80,0.00,40.00,11,6,27,0.29
2013-2-11,69.0,65.5,62.0,68.0,64.1,61.0,100,95,88,0.00,40.00,12,5,28,0.36
2013-2-12,70.0,64.0,59.0,63.0,58.8,54.0,97,84,67,0.00,40.00,7,4,20,0.05
2013-2-13,73.0,65.1,59.0,60.0,56.3,53.0,97,74,55,0.00,40.00,9,5,20,0.01
2013-2-14,74.0,65.3,58.0,60.0,57.8,54.0,92,77,60,0.00,40.00,8,4,18,0.00
2013-2-15,76.0,67.9,63.0,65.0,60.5,56.0,99,78,59,0.00,40.00,13,8,28,0.67
2013-2-16,74.0,66.9,63.0,64.0,60.1,56.0,100,80,59,0.00,40.00,12,8,33,1.82
2013-2-17,72.0,66.9,62.0,61.0,58.0,56.0,91,74,63,0.00,40.00,12,8,35,0.05
2013-2-18,70.0,65.7,63.0,61.0,58.2,54.0,86,77,65,0.00,40.00,22,12,49,0.39
2013-2-19,70.0,65.1,62.0,62.0,59.5,56.0,97,83,66,0.00,40.00,13,9,34,0.99
2013-2-20,70.0,65.4,62.0,65.0,61.8,58.0,98,88,70,0.00,40.00,15,10,41,4.66
2013-2-21,67.0,64.9,62.0,66.0,63.3,58.0,100,95,79,0.00,40.00,14,7,31,3.55
2013-2-22,68.0,65.1,62.0,66.0,64.3,62.0,100,97,89,0.00,40.00,11,6,26,3.94
2013-2-23,70.0,65.0,63.0,66.0,63.5,62.0,100,95,83,0.00,40.00,15,7,39,1.44
2013-2-24,72.0,66.1,63.0,66.0,60.6,58.0,96,82,73,0.00,40.00,11,7,26,0.89
2013-2-25,73.0,66.8,64.0,64.0,60.2,57.0,97,80,66,0.00,40.00,11,8,30,0.11
2013-2-26,70.0,65.7,63.0,64.0,61.3,58.0,100,86,72,0.00,40.00,9,7,25,0.85
2013-2-27,75.0,67.6,62.0,63.0,58.8,53.0,96,74,53,0.00,40.00,16,7,34,0.76
2013-2-28,76.0,67.3,64.0,60.0,57.9,56.0,84,72,53,0.00,40.00,10,8,29,0.01
2013-3-1,70.0,66.5,64.0,61.0,57.6,55.0,85,73,64,0.00,40.00,13,9,31,0.01
2013-3-2,75.0,67.3,63.0,59.0,56.6,53.0,81,69,52,0.00,40.00,18,8,37,0.01
2013-3-3,74.0,66.5,61.0,57.0,54.3,49.0,77,65,51,0.00,40.00,12,7,30,0.01
2013-3-4,72.0,66.0,62.0,58.0,55.4,52.0,77,69,59,0.00,40.00,8,6,28,0.00
2013-3-5,74.0,66.8,59.0,60.0,55.9,52.0,84,69,50,0.00,40.00,11,6,28,0.00
2013-3-6,76.0,67.2,60.0,62.0,60.6,59.0,98,81,58,0.00,40.00,11,6,25,0.00
2013-3-7,77.0,66.8,60.0,64.0,60.8,57.0,100,83,54,0.00,40.00,7,4,14,0.00
2013-3-8,80.0,66.0,57.0,66.0,59.3,50.0,100,83,36,0.00,40.00,8,4,21,0.00
2013-3-9,79.0,69.5,63.0,67.0,64.5,62.0,100,86,58,0.00,40.00,11,6,32,0.19
2013-3-10,68.0,64.4,60.0,68.0,64.2,60.0,100,99,93,0.00,40.00,5,3,14,1.17
2013-3-11,79.0,65.7,56.0,66.0,61.5,56.0,100,88,54,0.00,40.00,9,4,17,0.01
2013-3-12,78.0,66.1,58.0,66.0,59.4,52.0,100,82,48,0.00,40.00,7,4,18,0.00
2013-3-13,73.0,64.4,56.0,63.0,58.7,56.0,100,84,58,0.00,40.00,7,4,17,0.00
2013-3-14,77.0,65.3,59.0,62.0,59.6,56.0,100,84,55,0.00,40.00,5,3,11,0.00
2013-3-15,76.0,64.3,56.0,64.0,59.1,54.0,100,86,52,0.00,40.00,7,4,19,0.07
2013-3-16,72.0,63.8,59.0,62.0,56.5,52.0,100,79,54,0.00,40.00,11,6,25,0.09
2013-3-17,75.0,63.4,56.0,58.0,55.6,52.0,100,79,45,0.00,40.00,6,4,17,0.00
2013-3-18,72.0,61.7,53.0,60.0,56.7,53.0,100,85,58,0.00,40.00,5,3,11,0.01
2013-3-19,78.0,67.1,58.0,64.0,60.0,56.0,100,80,53,0.00,40.00,8,4,25,0.01
2013-3-20,81.0,68.5,59.0,67.0,61.5,58.0,100,82,51,0.00,40.00,9,4,21,0.00
2013-3-21,80.0,69.5,59.0,68.0,64.1,59.0,100,85,59,0.00,40.00,8,5,23,0.00
2013-3-22,75.0,68.9,65.0,70.0,67.3,65.0,100,95,73,0.00,40.00,6,3,18,0.20
2013-3-23,74.0,66.9,62.0,66.0,63.8,62.0,100,90,71,0.00,40.00,10,6,24,0.17
2013-3-24,69.0,65.7,61.0,68.0,65.0,61.0,100,97,90,0.00,40.00,9,4,19,0.22
2013-3-25,78.0,68.8,61.0,70.0,66.1,61.0,100,92,73,0.00,40.00,7,4,15,0.12
2013-3-26,79.0,68.3,61.0,70.0,64.9,61.0,100,90,60,0.00,40.00,7,3,13,0.14
2013-3-27,69.0,65.0,61.0,69.0,64.8,61.0,100,99,97,0.00,40.00,7,3,20,0.96
2013-3-28,76.0,70.3,64.0,65.0,63.5,61.0,100,80,65,0.00,40.00,13,8,27,0.04
2013-3-29,74.0,66.7,62.0,67.0,63.9,61.0,100,91,74,0.00,40.00,12,7,26,0.38
2013-3-30,77.0,67.2,60.0,67.0,62.1,58.0,100,85,58,0.00,40.00,8,5,21,0.01
2013-3-31,71.0,63.3,57.0,58.0,52.7,50.0,92,69,50,0.00,40.00,11,6,25,0.00
2013-4-1,68.0,61.5,57.0,61.0,56.7,54.0,100,85,66,0.00,40.00,9,5,21,0.02
2013-4-2,74.0,62.4,55.0,59.0,54.8,50.0,100,79,50,0.00,40.00,7,4,18,0.01
2013-4-3,73.0,63.7,54.0,64.0,58.5,54.0,100,85,62,0.00,40.00,10,5,22,0.00
2013-4-4,81.0,68.9,62.0,64.0,62.3,59.0,97,81,49,0.00,40.00,7,5,17,0.00
2013-4-5,78.0,69.0,62.0,67.0,62.9,60.0,99,82,58,0.00,40.00,12,6,22,0.00
2013-4-6,79.0,71.7,66.0,70.0,67.2,65.0,100,87,68,0.00,40.00,12,7,23,0.04
2013-4-7,80.0,71.7,65.0,70.0,66.3,65.0,100,85,64,0.00,40.00,13,6,25,0.01
2013-4-8,78.0,70.8,66.0,67.0,64.2,62.0,100,81,58,0.00,40.00,10,5,19,0.01
2013-4-9,79.0,70.3,64.0,67.0,63.5,60.0,100,81,59,0.00,40.00,11,7,25,0.04
2013-4-10,78.0,71.4,63.0,69.0,64.4,61.0,100,80,59,0.00,40.00,11,8,28,0.47
2013-4-11,83.0,71.9,64.0,69.0,66.0,64.0,100,83,52,0.00,40.00,7,4,18,0.01
2013-4-12,81.0,70.2,63.0,69.0,66.5,63.0,100,89,65,0.00,40.00,8,4,20,0.01
2013-4-13,77.0,69.4,66.0,71.0,67.5,66.0,100,94,69,0.00,40.00,11,4,26,0.03
2013-4-14,75.0,68.8,65.0,70.0,67.9,65.0,100,97,78,0.00,40.00,10,5,25,0.86
2013-4-15,74.0,68.0,64.0,72.0,67.5,64.0,100,98,84,0.00,40.00,7,3,16,0.43
2013-4-16,84.0,71.0,60.0,72.0,66.2,60.0,100,87,60,0.00,40.00,8,4,18,0.02
2013-4-17,78.0,70.1,64.0,70.0,66.5,63.0,100,89,69,0.00,40.00,12,4,23,0.12
2013-4-18,77.0,68.9,65.0,70.0,66.3,63.0,100,92,74,0.00,40.00,9,6,26,0.25
2013-4-19,74.0,68.0,64.0,71.0,67.2,64.0,100,97,86,0.00,40.00,12,6,30,0.54
2013-4-20,82.0,70.8,63.0,70.0,67.0,63.0,100,89,59,0.00,40.00,6,3,16,0.16
2013-4-21,79.0,69.8,64.0,71.0,66.8,64.0,100,91,66,0.00,40.00,7,4,20,0.01
2013-4-22,78.0,69.9,65.0,72.0,68.7,65.0,100,96,76,0.00,40.00,8,4,22,0.79
2013-4-23,78.0,70.8,66.0,73.0,69.0,66.0,100,95,66,0.00,40.00,7,5,23,0.48
2013-4-24,81.0,70.3,66.0,73.0,67.7,65.0,100,92,63,0.00,40.00,7,3,16,1.82
2013-4-25,79.0,71.1,66.0,69.0,65.4,63.0,100,83,64,0.00,40.00,10,5,24,0.25
2013-4-26,78.0,71.0,66.0,65.0,63.5,61.0,95,78,60,0.00,40.00,12,6,28,0.00
2013-4-27,82.0,71.1,62.0,67.0,64.3,61.0,100,81,50,0.00,40.00,9,4,22,0.00
2013-4-28,82.0,71.7,63.0,71.0,66.1,63.0,100,85,59,0.00,40.00,8,4,20,0.00
2013-4-29,80.0,71.9,68.0,72.0,69.2,67.0,100,92,68,0.00,40.00,11,6,25,0.09
2013-4-30,82.0,71.2,64.0,74.0,68.3,64.0,100,92,63,0.00,40.00,7,3,37,1.09
2013-5-1,80.0,71.5,64.0,71.0,66.0,62.0,100,85,59,0.00,40.00,9,4,24,0.02
2013-5-2,80.0,70.9,65.0,72.0,67.4,63.0,100,89,67,0.00,40.00,12,6,24,0.09
2013-5-3,81.0,70.6,62.0,70.0,65.1,61.0,100,85,51,0.00,40.00,7,4,15,0.01
2013-5-4,80.0,68.8,63.0,71.0,66.5,63.0,100,94,63,0.00,40.00,8,3,16,1.27
2013-5-5,71.0,67.5,65.0,71.0,67.5,65.0,100,100,98,0.00,40.00,7,4,22,0.58
2013-5-6,81.0,70.0,60.0,68.0,63.4,60.0,100,82,53,0.00,40.00,8,4,18,0.47
2013-5-7,78.0,69.5,60.0,67.0,63.7,60.0,100,84,64,0.00,40.00,8,4,16,0.00
2013-5-8,81.0,69.4,59.0,65.0,62.6,59.0,100,82,53,0.00,40.00,6,4,14,0.00
2013-5-9,81.0,70.8,62.0,68.0,65.6,62.0,100,85,60,0.00,40.00,6,4,15,0.00
2013-5-10,80.0,72.1,64.0,71.0,67.4,64.0,100,86,64,0.00,40.00,7,4,16,0.00
2013-5-11,78.0,70.7,66.0,68.0,66.1,64.0,100,87,66,0.00,40.00,11,6,23,0.01
2013-5-12,75.0,69.5,66.0,70.0,67.0,64.0,100,92,80,0.00,40.00,12,6,27,0.01
2013-5-13,77.0,71.0,67.0,72.0,68.5,66.0,100,92,78,0.00,40.00,11,7,27,0.17
2013-5-14,80.0,73.3,69.0,70.0,67.8,66.0,100,83,69,0.00,40.00,11,6,28,0.01
2013-5-15,78.0,71.8,67.0,70.0,66.8,64.0,100,85,68,0.00,40.00,9,5,20,0.49
2013-5-16,78.0,71.4,67.0,69.0,55.3,-99.9,100,85,64,0.00,40.00,8,-863,17,0.83
2013-5-17,76.0,69.8,66.0,68.0,60.0,-99.9,99,86,66,0.00,40.00,0,-999,0,0.37
2013-5-18,81.0,70.5,64.0,69.0,66.0,63.0,100,87,63,0.00,40.00,0,-999,0,0.22
2013-5-19,80.0,70.1,62.0,67.0,64.8,62.0,100,85,63,0.00,40.00,0,-999,0,0.01
2013-5-20,80.0,69.8,61.0,64.0,60.8,54.0,99,76,48,0.00,40.00,0,-999,0,0.00
2013-5-21,80.0,68.5,59.0,66.0,61.7,59.0,100,82,57,0.00,40.00,0,-999,0,0.00
2013-5-22,84.0,69.9,61.0,71.0,66.5,61.0,100,90,60,0.00,40.00,0,-999,0,1.23
2013-5-23,85.0,73.4,62.0,71.0,66.8,62.0,100,82,55,0.00,40.00,0,-999,0,1.23
2013-5-24,80.0,73.1,67.0,70.0,67.1,64.0,100,82,65,0.00,40.00,0,-999,0,0.00
2013-5-25,74.0,69.9,67.0,71.0,67.5,64.0,99,92,84,0.00,40.00,0,-999,0,1.03
2013-5-26,79.0,72.0,65.0,68.0,65.7,62.0,97,81,65,0.00,40.00,0,-999,0,0.16
2013-5-27,78.0,71.5,66.0,67.0,65.8,64.0,97,83,65,0.00,40.00,0,-999,0,0.01
2013-5-28,76.0,69.0,64.0,73.0,68.0,64.0,100,97,83,0.00,40.00,0,-999,0,3.39
2013-5-29,82.0,71.0,65.0,74.0,68.7,65.0,100,94,62,0.00,40.00,0,-999,0,3.57
2013-5-30,81.0,73.5,64.0,72.0,68.9,64.0,100,87,67,0.00,40.00,0,-999,0,0.06
2013-5-31,80.0,72.6,67.0,73.0,70.0,67.0,100,92,77,0.00,40.00,0,-999,0,0.02
2013-6-1,81.0,72.3,68.0,74.0,69.2,65.0,100,91,67,0.00,40.00,0,-999,0,0.17
2013-6-2,79.0,72.7,69.0,74.0,69.8,65.0,100,92,75,0.00,40.00,0,-999,0,0.23
2013-6-3,78.0,72.4,69.0,68.0,65.2,62.0,86,78,69,0.00,40.00,0,-999,0,0.01
2013-6-4,79.0,72.8,68.0,68.0,65.8,62.0,88,79,64,0.00,40.00,0,-999,0,0.01
2013-6-5,79.0,71.7,68.0,69.0,65.0,61.0,92,80,65,0.00,40.00,0,-999,0,0.00
2013-6-6,77.0,71.7,68.0,67.0,64.2,62.0,90,77,65,0.00,40.00,0,-999,0,0.00
2013-6-7,72.0,68.5,66.0,68.0,65.9,63.0,100,91,80,0.00,40.00,0,-999,0,0.58
2013-6-8,78.0,70.6,66.0,68.0,65.7,63.0,100,86,67,0.00,40.00,0,-999,0,0.61
2013-6-9,78.0,71.1,66.0,70.0,67.2,64.0,100,88,65,0.00,40.00,0,-999,0,0.14
2013-6-10,78.0,72.1,66.0,69.0,66.5,65.0,100,83,69,0.00,40.00,0,-999,0,0.03
2013-6-11,79.0,72.0,68.0,70.0,67.4,66.0,96,86,69,0.00,40.00,0,-999,0,0.01
2013-6-12,79.0,71.2,68.0,72.0,67.8,66.0,100,90,64,0.00,40.00,0,-999,0,0.43
2013-6-13,72.0,69.6,67.0,72.0,68.8,67.0,100,97,89,0.00,40.00,0,-999,0,2.70
2013-6-14,79.0,71.2,66.0,70.0,67.5,65.0,100,89,69,0.00,40.00,0,-999,0,1.47
2013-6-15,77.0,69.8,66.0,70.0,67.5,65.0,100,93,74,0.00,40.00,0,-999,0,0.27
2013-6-16,77.0,70.1,66.0,72.0,67.6,66.0,100,92,72,0.00,40.00,0,-999,0,0.37
2013-6-17,74.0,68.8,66.0,70.0,67.9,66.0,100,97,87,0.00,40.00,0,-999,0,0.53
2013-6-18,78.0,70.8,67.0,71.0,68.3,66.0,100,92,73,0.00,40.00,0,-999,0,0.93
2013-6-19,79.0,72.1,65.0,72.0,67.3,64.0,100,86,71,0.00,40.00,0,-999,0,0.48